Latest  Newer  Older  Last 2 hours animation  Current image  Latest image 
Rain/snow radar  Infrared sat images 
Real-time lightning map

All time is UTC (add 2 hours to UTC in wintertime, 3 hours to UTC in DST for Latvia local time)

2019/08/22 10:50 EVRA 221050Z 28004KT 190V340 9999 FEW040 SCT046 20/12 Q1027 NOSIG
2019/08/22 10:50 EVLA 221050Z AUTO 27009KT 240V300 9999 FEW031/// 19/10 Q1029
2019/08/22 10:50 EVVA 221050Z AUTO 27013KT 9999 SCT034 19/11 Q1028
2019/08/22 10:50 EYKA 221050Z VRB03KT CAVOK 20/12 Q1029
2019/08/22 10:50 EYPA 221050Z VRB05KT 9999 FEW030 20/11 Q1030
2019/08/22 10:50 EYSA 221050Z 25010KT 9999 FEW034 BKN041 20/10 Q1029 BLU NOSIG
2019/08/22 10:50 EYVI 221050Z 32005KT 210V010 9999 BKN033 19/11 Q1030 NOSIG
2019/08/22 10:50 EEKA 221050Z 27011KT 230V310 9999 FEW030 19/10 Q1025
2019/08/22 10:50 EEKE 221050Z 24010KT 200V270 9999 SCT035 19/11 Q1026
2019/08/22 10:50 EEPU 221050Z 26009KT 230V300 9999 BKN/// 19/11 Q1025
2019/08/22 10:50 EETN 221050Z 28013KT 9999 SCT035 19/12 Q1024 NOSIG
2019/08/22 10:50 EETU 221050Z 22009KT 200V260 9999 FEW025 19/13 Q1025
   RIGA AIRPORT     EVRA               56 55N  023 58E   10   X     T          6 LV
   LIEPAJA INTL     EVLA        26406  56 31N  021 06E    4   X                8 LV
   VENTPILS         EVVA               57 21N  021 33E    6   X                8 LV
   KAUNAS           EYKA               54 54N  023 55E   77   X     T          6 LT
   PALANGA INTL     EYPA               55 55N  021 03E   10   X                6 LT
   SIAULIAI INTL    EYSA               55 54N  023 24E  135   X     T          6 LT
   VILNIUS INTL     EYVI        26730  54 38N  025 17E  197   X     T          6 LT
   KARDLA           EEKA        26116  58 59N  022 50E    4   X                8 EE
   KURESSAARE       EEKE               58 14N  022 31E    4   X                8 EE
   PARNU            EEPU               58 25N  024 28E   14   X                8 EE
   TALLINN          EETN        26038  59 24N  024 49E   40   X     T          8 EE
   TARTU            EETU               58 19N  026 41E   67   X                8 EE

cloud coverage image from sat24.com and METAR data from weather.noaa.gov